createdAt,value
2023-03-03T00:02:05.312Z,91.27
2023-03-03T00:04:53.940Z,91.38
2023-03-03T00:07:44.750Z,92.45
2023-03-03T00:10:33.515Z,92.58
2023-03-03T00:13:23.568Z,92.19
2023-03-03T00:16:16.419Z,92.56
2023-03-03T00:19:14.308Z,93.56
2023-03-03T00:22:02.797Z,92.65
2023-03-03T00:24:51.314Z,93.00
2023-03-03T00:27:39.792Z,93.39
2023-03-03T00:30:29.099Z,93.86
2023-03-03T00:33:28.014Z,93.86
2023-03-03T00:36:33.666Z,94.96
2023-03-03T00:39:28.532Z,95.06
2023-03-03T00:42:18.688Z,95.72
2023-03-03T00:45:24.155Z,96.20
2023-03-03T00:48:41.043Z,95.64
2023-03-03T00:51:33.088Z,95.43
2023-03-03T00:54:21.600Z,95.26
2023-03-03T00:57:10.147Z,96.04
2023-03-03T00:59:58.626Z,96.50
2023-03-03T01:02:48.428Z,96.33
2023-03-03T01:05:37.444Z,96.73
2023-03-03T01:08:27.315Z,96.58
2023-03-03T01:11:18.763Z,96.65
2023-03-03T01:14:07.340Z,96.58
2023-03-03T01:16:55.862Z,97.04
2023-03-03T01:19:44.334Z,96.71
2023-03-03T01:22:32.883Z,96.57
2023-03-03T01:25:22.757Z,96.75
2023-03-03T01:28:11.522Z,97.39
2023-03-03T01:31:02.134Z,97.03
2023-03-03T01:33:50.885Z,96.88
2023-03-03T01:36:39.386Z,96.82
2023-03-03T01:39:27.948Z,97.46
2023-03-03T01:42:17.838Z,98.13
2023-03-03T01:45:19.062Z,98.67
2023-03-03T01:48:11.013Z,98.70
2023-03-03T01:51:02.511Z,99.00
2023-03-03T01:53:52.749Z,98.67
2023-03-03T01:56:42.628Z,98.64
2023-03-03T01:59:35.337Z,98.22
2023-03-03T02:02:24.901Z,97.98
2023-03-03T02:05:13.931Z,98.55
2023-03-03T02:08:02.623Z,99.32
2023-03-03T02:10:51.604Z,100.00
2023-03-03T02:13:40.073Z,100.00
2023-03-03T02:16:30.188Z,100.00
2023-03-03T02:19:23.468Z,100.00
2023-03-03T02:22:12.461Z,100.00
2023-03-03T02:25:02.623Z,99.86
2023-03-03T02:27:52.502Z,99.73
2023-03-03T02:30:41.535Z,100.00
2023-03-03T02:33:30.532Z,99.84
2023-03-03T02:36:21.302Z,100.00
2023-03-03T02:39:12.472Z,100.00
2023-03-03T02:42:04.812Z,100.00
2023-03-03T02:44:54.675Z,100.00
2023-03-03T02:47:43.094Z,100.00
2023-03-03T02:50:31.558Z,100.00
2023-03-03T02:53:20.080Z,100.00
2023-03-03T02:56:09.912Z,100.00
2023-03-03T02:58:58.645Z,100.00
2023-03-03T03:01:48.825Z,100.00
2023-03-03T03:04:38.650Z,100.00
2023-03-03T03:07:27.389Z,100.00
2023-03-03T03:10:16.931Z,100.00
2023-03-03T03:13:05.439Z,100.00
2023-03-03T03:15:54.200Z,100.00
2023-03-03T03:18:44.022Z,100.00
2023-03-03T03:21:33.165Z,100.00
2023-03-03T03:24:21.654Z,100.00
2023-03-03T03:27:10.412Z,100.00
2023-03-03T03:29:58.902Z,100.00
2023-03-03T03:32:47.396Z,100.00
2023-03-03T03:35:37.906Z,100.00
2023-03-03T03:38:27.129Z,100.00
2023-03-03T03:41:15.676Z,100.00
2023-03-03T03:44:04.160Z,100.00
2023-03-03T03:46:52.609Z,100.00
2023-03-03T03:49:41.136Z,100.00
2023-03-03T03:52:31.009Z,100.00
2023-03-03T03:55:19.527Z,100.00
2023-03-03T03:58:08.017Z,100.00
2023-03-03T04:00:56.685Z,100.00
2023-03-03T04:03:45.176Z,100.00
2023-03-03T04:06:33.958Z,100.00
2023-03-03T04:09:23.861Z,100.00
2023-03-03T04:12:12.493Z,100.00
2023-03-03T04:15:00.936Z,100.00
2023-03-03T04:17:49.456Z,100.00
2023-03-03T04:20:37.973Z,100.00
2023-03-03T04:23:26.486Z,100.00
2023-03-03T04:26:16.304Z,100.00
2023-03-03T04:29:05.005Z,100.00
2023-03-03T04:31:53.578Z,100.00
2023-03-03T04:34:42.064Z,100.00
2023-03-03T04:37:30.566Z,100.00
2023-03-03T04:40:19.228Z,100.00
2023-03-03T04:43:09.161Z,100.00
2023-03-03T04:45:57.699Z,100.00
2023-03-03T04:48:46.489Z,100.00
2023-03-03T04:51:34.949Z,100.00
2023-03-03T04:54:23.417Z,100.00
2023-03-03T04:57:11.909Z,100.00
2023-03-03T05:00:01.747Z,100.00
2023-03-03T05:02:50.230Z,100.00
2023-03-03T05:05:38.732Z,100.00
2023-03-03T05:08:27.281Z,100.00
2023-03-03T05:11:15.949Z,100.00
2023-03-03T05:14:04.549Z,100.00
2023-03-03T05:16:54.590Z,100.00
2023-03-03T05:19:43.249Z,100.00
2023-03-03T05:22:31.700Z,100.00
2023-03-03T05:25:20.380Z,100.00
2023-03-03T05:28:08.863Z,100.00
2023-03-03T05:30:57.345Z,100.00
2023-03-03T05:33:47.307Z,100.00
2023-03-03T05:36:36.230Z,100.00
2023-03-03T05:39:24.878Z,100.00
2023-03-03T05:42:14.191Z,100.00
2023-03-03T05:45:02.731Z,100.00
2023-03-03T05:47:51.544Z,100.00
2023-03-03T05:50:41.382Z,100.00
2023-03-03T05:53:30.193Z,100.00
2023-03-03T05:56:18.802Z,100.00
2023-03-03T05:59:07.290Z,100.00
2023-03-03T06:01:55.804Z,100.00
2023-03-03T06:04:44.601Z,100.00
2023-03-03T06:07:34.444Z,100.00
2023-03-03T06:10:22.976Z,100.00
2023-03-03T06:13:11.512Z,100.00
2023-03-03T06:16:00.238Z,100.00
2023-03-03T06:18:49.163Z,100.00
2023-03-03T06:21:37.695Z,100.00
2023-03-03T06:24:30.196Z,100.00
2023-03-03T06:27:18.672Z,100.00
2023-03-03T06:30:08.469Z,100.00
2023-03-03T06:32:57.004Z,100.00
2023-03-03T06:35:47.549Z,100.00
2023-03-03T06:38:36.067Z,100.00
2023-03-03T06:41:25.986Z,100.00
2023-03-03T06:44:14.547Z,100.00
2023-03-03T06:47:03.549Z,100.00
2023-03-03T06:49:51.986Z,100.00
2023-03-03T06:52:40.649Z,100.00
2023-03-03T06:55:29.225Z,100.00
2023-03-03T06:58:20.533Z,100.00
2023-03-03T07:01:14.794Z,100.00
2023-03-03T07:04:06.047Z,100.00
2023-03-03T07:06:54.562Z,100.00
2023-03-03T07:09:45.420Z,100.00
2023-03-03T07:12:33.960Z,100.00
2023-03-03T07:15:26.071Z,100.00
2023-03-03T07:18:26.780Z,100.00
2023-03-03T07:21:20.025Z,100.00
2023-03-03T07:24:20.031Z,100.00
2023-03-03T07:27:13.417Z,100.00
2023-03-03T07:30:19.531Z,100.00
2023-03-03T07:33:21.247Z,100.00
2023-03-03T07:36:24.110Z,100.00
2023-03-03T07:39:26.448Z,100.00
2023-03-03T07:42:22.879Z,100.00
2023-03-03T07:45:23.872Z,100.00
2023-03-03T07:48:20.694Z,100.00
2023-03-03T07:51:15.160Z,100.00
2023-03-03T07:54:18.927Z,99.84
2023-03-03T07:57:16.358Z,100.00
2023-03-03T08:00:50.657Z,99.90
2023-03-03T08:03:40.653Z,99.11
2023-03-03T08:06:47.886Z,99.74
2023-03-03T08:09:43.564Z,99.90
2023-03-03T08:12:41.832Z,100.00
2023-03-03T08:15:33.299Z,99.27
2023-03-03T08:18:26.444Z,98.00
2023-03-03T08:21:17.222Z,97.11
2023-03-03T08:24:06.671Z,94.33
2023-03-03T08:26:55.187Z,93.58
2023-03-03T08:29:43.631Z,91.63
2023-03-03T08:32:32.246Z,86.12
2023-03-03T08:35:20.933Z,84.15
2023-03-03T08:38:11.991Z,81.46
2023-03-03T08:41:00.602Z,77.74
2023-03-03T08:43:49.103Z,76.02
2023-03-03T08:46:37.750Z,74.54
2023-03-03T08:49:26.261Z,74.19
2023-03-03T08:52:14.782Z,73.92
2023-03-03T08:55:04.800Z,72.49
2023-03-03T08:57:53.346Z,71.94
2023-03-03T09:00:42.052Z,70.43
2023-03-03T09:03:30.969Z,69.73
2023-03-03T09:06:19.444Z,68.54
2023-03-03T09:09:07.978Z,67.46
2023-03-03T09:12:00.556Z,66.56
2023-03-03T09:14:49.306Z,64.18
2023-03-03T09:17:38.669Z,62.99
2023-03-03T09:20:39.715Z,61.41
2023-03-03T09:23:35.676Z,62.75
2023-03-03T09:26:30.473Z,62.30
2023-03-03T09:29:26.358Z,63.60
2023-03-03T09:32:25.729Z,64.96
2023-03-03T09:35:37.508Z,63.33
2023-03-03T09:38:31.619Z,64.21
2023-03-03T09:41:41.447Z,63.72
2023-03-03T09:45:02.534Z,62.86
2023-03-03T09:48:14.804Z,61.65
2023-03-03T09:51:15.020Z,60.29
2023-03-03T09:54:16.540Z,60.29
2023-03-03T09:57:10.295Z,59.76
2023-03-03T10:00:16.228Z,60.19
2023-03-03T10:03:38.877Z,63.81
2023-03-03T10:06:29.969Z,66.41
2023-03-03T10:09:35.597Z,66.64
2023-03-03T10:12:28.402Z,66.23
2023-03-03T10:15:35.254Z,66.70
2023-03-03T10:18:33.559Z,66.35
2023-03-03T10:21:26.168Z,66.20
2023-03-03T10:24:25.048Z,66.65
2023-03-03T10:27:26.028Z,65.65
2023-03-03T10:30:33.239Z,64.23
2023-03-03T10:33:34.618Z,62.63
2023-03-03T10:36:34.095Z,62.09
2023-03-03T10:39:48.175Z,61.59
2023-03-03T10:42:47.007Z,60.99
2023-03-03T10:46:05.392Z,60.04
2023-03-03T10:49:07.276Z,58.99
2023-03-03T10:52:08.991Z,59.07
2023-03-03T10:55:25.187Z,58.57
2023-03-03T10:58:33.828Z,58.17
2023-03-03T11:01:30.400Z,57.51
2023-03-03T11:04:39.298Z,57.63
2023-03-03T11:07:30.273Z,57.47
2023-03-03T11:10:25.327Z,57.96
2023-03-03T11:13:24.066Z,57.72
2023-03-03T11:16:19.473Z,58.44
2023-03-03T11:19:20.818Z,57.27
2023-03-03T11:22:24.455Z,57.07
2023-03-03T11:25:21.466Z,56.59
2023-03-03T11:28:30.727Z,55.52
2023-03-03T11:31:22.675Z,54.96
2023-03-03T11:34:18.183Z,54.15
2023-03-03T11:37:09.863Z,54.23
2023-03-03T11:40:07.301Z,53.98
2023-03-03T11:43:02.720Z,53.73
2023-03-03T11:45:54.459Z,53.84
2023-03-03T11:48:48.395Z,53.28
2023-03-03T11:51:45.807Z,52.55
2023-03-03T11:54:39.415Z,52.24
2023-03-03T11:57:31.804Z,52.28
2023-03-03T12:00:25.573Z,52.54
2023-03-03T12:03:36.752Z,51.74
2023-03-03T12:06:31.383Z,51.75
2023-03-03T12:09:28.642Z,51.84
2023-03-03T12:12:20.435Z,52.00
2023-03-03T12:15:24.484Z,52.80
2023-03-03T12:18:33.169Z,53.62
2023-03-03T12:21:33.599Z,52.74
2023-03-03T12:24:33.973Z,52.89
2023-03-03T12:27:26.817Z,52.73
2023-03-03T12:30:24.298Z,51.58
2023-03-03T12:33:20.323Z,52.03
2023-03-03T12:36:18.168Z,51.65
2023-03-03T12:39:10.105Z,50.82
2023-03-03T12:42:05.242Z,50.05
2023-03-03T12:45:02.930Z,50.95
2023-03-03T12:47:58.056Z,50.89
2023-03-03T12:50:59.091Z,50.80
2023-03-03T12:53:59.246Z,50.97
2023-03-03T12:56:51.767Z,49.87
2023-03-03T12:59:46.075Z,49.02
2023-03-03T13:02:42.609Z,48.93
2023-03-03T13:05:39.351Z,50.38
2023-03-03T13:08:38.102Z,50.52
2023-03-03T13:11:47.318Z,49.80
2023-03-03T13:14:41.637Z,49.10
2023-03-03T13:17:33.540Z,49.40
2023-03-03T13:20:30.086Z,49.56
2023-03-03T13:23:32.168Z,50.29
2023-03-03T13:26:24.436Z,50.59
2023-03-03T13:29:18.194Z,50.46
2023-03-03T13:32:12.890Z,50.36
2023-03-03T13:35:04.283Z,52.13
2023-03-03T13:37:55.876Z,49.99
2023-03-03T13:40:47.550Z,50.04
2023-03-03T13:43:42.173Z,49.89
2023-03-03T13:46:36.758Z,49.47
2023-03-03T13:49:38.252Z,50.08
2023-03-03T13:52:29.164Z,50.10
2023-03-03T13:55:23.191Z,49.89
2023-03-03T13:58:23.558Z,49.93
2023-03-03T14:01:17.388Z,50.14
2023-03-03T14:04:15.318Z,50.54
2023-03-03T14:07:11.733Z,50.26
2023-03-03T14:10:04.598Z,50.69
2023-03-03T14:13:01.850Z,50.25
2023-03-03T14:15:57.019Z,50.77
2023-03-03T14:18:55.511Z,50.44
2023-03-03T14:21:50.833Z,50.52
2023-03-03T14:24:58.074Z,50.49
2023-03-03T14:28:02.194Z,50.88
2023-03-03T14:30:55.158Z,50.91
2023-03-03T14:33:44.727Z,51.80
2023-03-03T14:36:42.811Z,52.02
2023-03-03T14:39:34.472Z,51.26
2023-03-03T14:42:34.131Z,51.32
2023-03-03T14:45:31.907Z,51.43
2023-03-03T14:48:23.646Z,51.81
2023-03-03T14:51:27.196Z,52.18
2023-03-03T14:54:22.518Z,52.41
2023-03-03T14:57:16.378Z,52.63
2023-03-03T15:00:16.995Z,52.31
2023-03-03T15:03:23.408Z,52.84
2023-03-03T15:06:13.382Z,52.76
2023-03-03T15:09:29.715Z,53.40
2023-03-03T15:12:21.297Z,53.11
2023-03-03T15:15:19.075Z,53.46
2023-03-03T15:18:13.256Z,53.59
2023-03-03T15:21:06.344Z,53.74
2023-03-03T15:23:57.883Z,53.63
2023-03-03T15:26:49.133Z,53.60
2023-03-03T15:29:39.388Z,54.26
2023-03-03T15:32:31.255Z,53.49
2023-03-03T15:35:31.587Z,52.89
2023-03-03T15:38:29.386Z,53.39
2023-03-03T15:41:27.658Z,53.28
2023-03-03T15:44:20.367Z,54.35
2023-03-03T15:47:27.282Z,53.86
2023-03-03T15:50:30.878Z,54.78
2023-03-03T15:53:31.771Z,53.97
2023-03-03T15:56:27.386Z,55.04
2023-03-03T15:59:27.709Z,54.76
2023-03-03T16:02:18.577Z,54.97
2023-03-03T16:05:16.386Z,54.83
2023-03-03T16:08:13.600Z,55.15
2023-03-03T16:11:08.851Z,54.91
2023-03-03T16:14:05.955Z,55.10
2023-03-03T16:16:57.951Z,55.24
2023-03-03T16:19:50.748Z,55.46
2023-03-03T16:22:59.463Z,55.54
2023-03-03T16:25:59.562Z,54.59
2023-03-03T16:29:02.800Z,55.08
2023-03-03T16:31:54.592Z,55.39
2023-03-03T16:34:48.683Z,55.83
2023-03-03T16:37:39.951Z,55.68
2023-03-03T16:40:31.805Z,55.91
2023-03-03T16:43:24.412Z,55.73
2023-03-03T16:46:23.195Z,56.42
2023-03-03T16:49:17.405Z,56.92
2023-03-03T16:52:09.702Z,57.34
2023-03-03T16:55:01.140Z,56.84
2023-03-03T16:57:58.661Z,58.17
2023-03-03T17:00:53.138Z,58.61
2023-03-03T17:03:55.380Z,58.77
2023-03-03T17:06:48.931Z,58.50
2023-03-03T17:09:52.169Z,58.75
2023-03-03T17:12:52.217Z,59.63
2023-03-03T17:15:46.042Z,59.44
2023-03-03T17:18:41.999Z,61.09
2023-03-03T17:21:39.933Z,61.39
2023-03-03T17:24:37.683Z,61.13
2023-03-03T17:27:29.630Z,61.30
2023-03-03T17:30:22.525Z,61.92
2023-03-03T17:33:23.744Z,62.04
2023-03-03T17:36:27.429Z,62.86
2023-03-03T17:39:44.856Z,63.48
2023-03-03T17:42:38.815Z,64.17
2023-03-03T17:45:29.154Z,64.50
2023-03-03T17:48:40.135Z,64.87
2023-03-03T17:51:47.635Z,65.28
2023-03-03T17:54:50.841Z,66.33
2023-03-03T17:57:51.213Z,66.41
2023-03-03T18:00:48.504Z,66.82
2023-03-03T18:03:53.659Z,67.18
2023-03-03T18:07:11.905Z,67.23
2023-03-03T18:10:25.185Z,67.81
2023-03-03T18:13:22.528Z,67.90
2023-03-03T18:16:22.324Z,68.38
2023-03-03T18:19:27.482Z,68.78
2023-03-03T18:22:21.504Z,69.03
2023-03-03T18:25:11.990Z,69.70
2023-03-03T18:28:22.877Z,69.61
2023-03-03T18:31:22.838Z,70.19
2023-03-03T18:34:29.023Z,70.28
2023-03-03T18:37:37.073Z,70.86
2023-03-03T18:40:34.010Z,71.04
2023-03-03T18:43:52.167Z,71.81
2023-03-03T18:47:02.001Z,72.46
2023-03-03T18:49:57.581Z,73.17
2023-03-03T18:53:09.259Z,73.19
2023-03-03T18:55:59.283Z,73.65
2023-03-03T18:58:52.283Z,73.79
2023-03-03T19:01:43.790Z,74.20
2023-03-03T19:04:36.491Z,74.45
2023-03-03T19:07:29.953Z,74.81
2023-03-03T19:10:53.463Z,75.29
2023-03-03T19:13:47.931Z,75.91
2023-03-03T19:16:38.445Z,75.89
2023-03-03T19:19:32.630Z,75.85
2023-03-03T19:22:24.899Z,76.86
2023-03-03T19:25:32.686Z,76.84
2023-03-03T19:28:31.541Z,76.80
2023-03-03T19:31:27.036Z,76.90
2023-03-03T19:34:23.129Z,77.39
2023-03-03T19:37:24.230Z,77.19
2023-03-03T19:40:19.616Z,77.55
2023-03-03T19:43:16.379Z,77.39
2023-03-03T19:46:20.610Z,77.52
2023-03-03T19:49:18.354Z,78.55
2023-03-03T19:52:13.855Z,78.63
2023-03-03T19:55:24.475Z,78.95
2023-03-03T19:58:22.310Z,78.70
2023-03-03T20:01:17.544Z,79.21
2023-03-03T20:04:28.282Z,80.42
2023-03-03T20:07:29.132Z,81.18
2023-03-03T20:10:31.307Z,81.63
2023-03-03T20:13:35.093Z,81.84
2023-03-03T20:16:30.347Z,83.13
2023-03-03T20:19:31.092Z,83.23
2023-03-03T20:22:26.491Z,83.23
2023-03-03T20:25:26.756Z,83.25
2023-03-03T20:28:36.364Z,83.65
2023-03-03T20:31:30.692Z,83.92
2023-03-03T20:34:24.166Z,83.39
2023-03-03T20:37:17.397Z,84.08
2023-03-03T20:40:11.943Z,83.78
2023-03-03T20:43:08.347Z,83.37
2023-03-03T20:46:02.763Z,83.49
2023-03-03T20:49:04.267Z,83.25
2023-03-03T20:51:57.233Z,83.59
2023-03-03T20:54:50.629Z,84.07
2023-03-03T20:57:46.961Z,84.49
2023-03-03T21:00:39.569Z,84.91
2023-03-03T21:03:34.113Z,85.67
2023-03-03T21:06:25.582Z,85.43
2023-03-03T21:09:24.880Z,85.38
2023-03-03T21:12:28.839Z,85.34
2023-03-03T21:15:26.240Z,85.40
2023-03-03T21:18:22.109Z,86.18
2023-03-03T21:21:10.728Z,87.27
2023-03-03T21:23:59.669Z,87.12
2023-03-03T21:26:50.905Z,88.51
2023-03-03T21:29:40.765Z,88.57
2023-03-03T21:32:41.523Z,89.32
2023-03-03T21:35:30.204Z,89.15
2023-03-03T21:38:33.439Z,89.58
2023-03-03T21:41:22.243Z,89.31
2023-03-03T21:44:41.924Z,89.18
2023-03-03T21:47:30.504Z,88.60
2023-03-03T21:50:21.332Z,88.98
2023-03-03T21:53:09.851Z,89.11
2023-03-03T21:55:58.381Z,88.92
2023-03-03T21:58:46.933Z,89.05
2023-03-03T22:01:38.380Z,89.16
2023-03-03T22:04:27.473Z,88.96
2023-03-03T22:07:16.196Z,88.90
2023-03-03T22:10:05.158Z,89.49
2023-03-03T22:12:53.679Z,89.74
2023-03-03T22:15:42.247Z,89.96
2023-03-03T22:18:32.092Z,90.27
2023-03-03T22:21:20.641Z,90.23
2023-03-03T22:24:09.707Z,90.46
2023-03-03T22:26:58.216Z,90.73
2023-03-03T22:29:46.818Z,90.77
2023-03-03T22:32:35.346Z,90.96
2023-03-03T22:35:25.298Z,91.22
2023-03-03T22:38:13.859Z,90.92
2023-03-03T22:41:02.643Z,91.03
2023-03-03T22:43:51.168Z,91.24
2023-03-03T22:46:39.715Z,91.81
2023-03-03T22:49:28.807Z,92.32
2023-03-03T22:52:18.638Z,93.26
2023-03-03T22:55:08.366Z,93.04
2023-03-03T22:57:57.150Z,92.72
2023-03-03T23:00:45.643Z,93.17
2023-03-03T23:03:34.214Z,93.06
2023-03-03T23:06:22.788Z,92.51
2023-03-03T23:09:12.661Z,93.08
2023-03-03T23:12:01.919Z,93.13
2023-03-03T23:14:50.410Z,93.45
2023-03-03T23:17:38.871Z,93.64
2023-03-03T23:20:29.654Z,93.70
2023-03-03T23:23:18.098Z,94.47
2023-03-03T23:26:07.967Z,94.96
2023-03-03T23:28:56.594Z,94.98
2023-03-03T23:31:45.233Z,94.86
2023-03-03T23:34:33.991Z,95.25
2023-03-03T23:37:22.554Z,95.13
2023-03-03T23:40:12.555Z,95.45
2023-03-03T23:43:02.380Z,96.11
2023-03-03T23:45:50.904Z,96.25
2023-03-03T23:48:39.361Z,96.11
2023-03-03T23:51:27.847Z,96.33
2023-03-03T23:54:16.337Z,96.05
2023-03-03T23:57:07.870Z,96.16
2023-03-03T23:59:57.692Z,96.08
